Terminal Aerodrome Forecast
Issued by NWS

Home | Current Version | Previous Version | Text Only | Print | Product List | Glossary On
Versions: 1 2 3 4 5 6 7 8 9 10 11 12 13 14
000
FTUS45 KPSR 302131 AAA
TAFSDL
TAF AMD
KSDL 302131Z 3022/3118 09006KT P6SM VCTS SCT090CB
      TEMPO 3022/3102 VRB10G20KT
     FM310300 11008KT P6SM FEW140=

USA.gov is the U.S. government's official web portal to all federal, state and local government web resources and services.